sensor_id;sensor_type;location;lat;lon;timestamp;pressure;altitude;pressure_sealevel;temperature;humidity
45050;BME280;61798;48.048;-1.928;2023-02-13T00:01:05;102508.88;;;-1.05;100.00
45050;BME280;61798;48.048;-1.928;2023-02-13T00:03:12;102456.31;;;-1.47;100.00
45050;BME280;61798;48.048;-1.928;2023-02-13T00:05:18;102504.69;;;-1.30;100.00
45050;BME280;61798;48.048;-1.928;2023-02-13T00:07:24;102489.97;;;-1.34;100.00
45050;BME280;61798;48.048;-1.928;2023-02-13T00:09:30;102489.19;;;-1.36;100.00
45050;BME280;61798;48.048;-1.928;2023-02-13T00:11:36;102486.22;;;-1.29;100.00
45050;BME280;61798;48.048;-1.928;2023-02-13T00:13:42;102503.31;;;-1.18;100.00
45050;BME280;61798;48.048;-1.928;2023-02-13T00:15:56;102510.72;;;-1.07;100.00
45050;BME280;61798;48.048;-1.928;2023-02-13T00:18:02;102486.41;;;-1.12;100.00
45050;BME280;61798;48.048;-1.928;2023-02-13T00:20:09;102503.63;;;-1.05;100.00
45050;BME280;61798;48.048;-1.928;2023-02-13T00:22:15;102489.03;;;-1.12;100.00
45050;BME280;61798;48.048;-1.928;2023-02-13T00:24:21;102465.19;;;-1.29;100.00
45050;BME280;61798;48.048;-1.928;2023-02-13T00:26:27;102438.31;;;-1.35;100.00
45050;BME280;61798;48.048;-1.928;2023-02-13T00:28:34;102490.16;;;-0.99;100.00
45050;BME280;61798;48.048;-1.928;2023-02-13T00:30:40;102470.88;;;-1.19;100.00
45050;BME280;61798;48.048;-1.928;2023-02-13T00:32:46;102475.28;;;-1.19;100.00
45050;BME280;61798;48.048;-1.928;2023-02-13T00:34:52;102486.47;;;-1.14;100.00
45050;BME280;61798;48.048;-1.928;2023-02-13T00:36:58;102474.44;;;-1.20;100.00
45050;BME280;61798;48.048;-1.928;2023-02-13T00:39:04;102492.38;;;-1.09;100.00
45050;BME280;61798;48.048;-1.928;2023-02-13T00:41:11;102492.44;;;-1.10;100.00
45050;BME280;61798;48.048;-1.928;2023-02-13T00:43:17;102490.31;;;-1.42;100.00
45050;BME280;61798;48.048;-1.928;2023-02-13T00:45:23;102472.75;;;-1.63;100.00
45050;BME280;61798;48.048;-1.928;2023-02-13T00:47:29;102498.81;;;-1.56;100.00
45050;BME280;61798;48.048;-1.928;2023-02-13T00:49:35;102474.38;;;-1.79;100.00
45050;BME280;61798;48.048;-1.928;2023-02-13T00:51:41;102476.34;;;-1.64;100.00
45050;BME280;61798;48.048;-1.928;2023-02-13T00:53:47;102490.44;;;-1.45;100.00
45050;BME280;61798;48.048;-1.928;2023-02-13T00:55:53;102473.19;;;-1.72;100.00
45050;BME280;61798;48.048;-1.928;2023-02-13T00:57:58;102492.88;;;-1.62;100.00
45050;BME280;61798;48.048;-1.928;2023-02-13T01:00:05;102481.06;;;-1.72;100.00
45050;BME280;61798;48.048;-1.928;2023-02-13T01:02:11;102480.97;;;-1.71;100.00
45050;BME280;61798;48.048;-1.928;2023-02-13T01:04:17;102482.03;;;-1.75;100.00
45050;BME280;61798;48.048;-1.928;2023-02-13T01:06:23;102440.03;;;-1.97;100.00
45050;BME280;61798;48.048;-1.928;2023-02-13T01:08:29;102456.63;;;-1.95;100.00
45050;BME280;61798;48.048;-1.928;2023-02-13T01:10:37;102489.41;;;-1.62;100.00
45050;BME280;61798;48.048;-1.928;2023-02-13T01:12:43;102501.63;;;-1.40;100.00
45050;BME280;61798;48.048;-1.928;2023-02-13T01:14:49;102487.50;;;-1.58;100.00
45050;BME280;61798;48.048;-1.928;2023-02-13T01:16:55;102473.03;;;-1.69;100.00
45050;BME280;61798;48.048;-1.928;2023-02-13T01:19:01;102474.53;;;-1.42;100.00
45050;BME280;61798;48.048;-1.928;2023-02-13T01:21:08;102486.53;;;-1.15;100.00
45050;BME280;61798;48.048;-1.928;2023-02-13T01:23:19;102481.06;;;-0.91;100.00
45050;BME280;61798;48.048;-1.928;2023-02-13T01:25:25;102464.28;;;-1.08;100.00
45050;BME280;61798;48.048;-1.928;2023-02-13T01:27:33;102465.66;;;-1.40;100.00
45050;BME280;61798;48.048;-1.928;2023-02-13T01:29:38;102467.34;;;-1.39;100.00
45050;BME280;61798;48.048;-1.928;2023-02-13T01:31:44;102459.41;;;-1.37;100.00
45050;BME280;61798;48.048;-1.928;2023-02-13T01:33:50;102476.97;;;-1.38;100.00
45050;BME280;61798;48.048;-1.928;2023-02-13T01:35:56;102480.06;;;-1.49;100.00
45050;BME280;61798;48.048;-1.928;2023-02-13T01:38:02;102481.03;;;-1.51;100.00
45050;BME280;61798;48.048;-1.928;2023-02-13T01:40:13;102485.53;;;-1.53;100.00
45050;BME280;61798;48.048;-1.928;2023-02-13T01:42:29;102488.81;;;-1.48;100.00
45050;BME280;61798;48.048;-1.928;2023-02-13T01:46:55;102477.84;;;-1.58;100.00
45050;BME280;61798;48.048;-1.928;2023-02-13T01:51:20;102484.66;;;-1.33;100.00
45050;BME280;61798;48.048;-1.928;2023-02-13T01:53:38;102487.38;;;-1.15;100.00
45050;BME280;61798;48.048;-1.928;2023-02-13T01:55:49;102478.47;;;-1.32;100.00
45050;BME280;61798;48.048;-1.928;2023-02-13T01:58:01;102458.47;;;-1.55;100.00
45050;BME280;61798;48.048;-1.928;2023-02-13T02:00:12;102494.53;;;-1.38;100.00
45050;BME280;61798;48.048;-1.928;2023-02-13T02:02:20;102481.03;;;-1.51;100.00
45050;BME280;61798;48.048;-1.928;2023-02-13T02:04:33;102488.00;;;-1.50;100.00
45050;BME280;61798;48.048;-1.928;2023-02-13T02:06:45;102484.22;;;-1.64;100.00
45050;BME280;61798;48.048;-1.928;2023-02-13T02:08:54;102463.03;;;-2.03;100.00
45050;BME280;61798;48.048;-1.928;2023-02-13T02:11:16;102467.41;;;-2.24;100.00
45050;BME280;61798;48.048;-1.928;2023-02-13T02:13:27;102442.00;;;-2.46;100.00
45050;BME280;61798;48.048;-1.928;2023-02-13T02:15:33;102472.56;;;-2.43;100.00
45050;BME280;61798;48.048;-1.928;2023-02-13T02:17:39;102472.56;;;-2.43;100.00
45050;BME280;61798;48.048;-1.928;2023-02-13T02:24:54;102463.91;;;-2.25;100.00
45050;BME280;61798;48.048;-1.928;2023-02-13T02:27:08;102461.03;;;-2.18;100.00
45050;BME280;61798;48.048;-1.928;2023-02-13T02:29:37;102459.53;;;-2.24;100.00
45050;BME280;61798;48.048;-1.928;2023-02-13T02:36:44;102426.72;;;-2.81;100.00
45050;BME280;61798;48.048;-1.928;2023-02-13T02:39:09;102456.72;;;-2.64;100.00
45050;BME280;61798;48.048;-1.928;2023-02-13T02:50:40;102451.00;;;-2.52;100.00
45050;BME280;61798;48.048;-1.928;2023-02-13T02:55:36;102453.31;;;-2.44;100.00
45050;BME280;61798;48.048;-1.928;2023-02-13T02:58:10;102455.06;;;-2.45;100.00
45050;BME280;61798;48.048;-1.928;2023-02-13T03:00:40;102431.88;;;-2.56;100.00
45050;BME280;61798;48.048;-1.928;2023-02-13T03:03:14;102448.97;;;-2.45;100.00
45050;BME280;61798;48.048;-1.928;2023-02-13T03:05:44;102420.53;;;-2.56;100.00
45050;BME280;61798;48.048;-1.928;2023-02-13T03:08:10;102425.91;;;-2.59;100.00
45050;BME280;61798;48.048;-1.928;2023-02-13T03:10:27;102437.88;;;-2.52;100.00
45050;BME280;61798;48.048;-1.928;2023-02-13T03:13:08;102430.84;;;-2.51;100.00
45050;BME280;61798;48.048;-1.928;2023-02-13T03:15:26;102430.34;;;-2.61;100.00
45050;BME280;61798;48.048;-1.928;2023-02-13T03:17:33;102443.75;;;-2.47;100.00
45050;BME280;61798;48.048;-1.928;2023-02-13T03:20:13;102424.41;;;-2.67;100.00
45050;BME280;61798;48.048;-1.928;2023-02-13T03:27:50;102454.00;;;-2.85;100.00
45050;BME280;61798;48.048;-1.928;2023-02-13T03:33:12;102451.63;;;-2.92;100.00
45050;BME280;61798;48.048;-1.928;2023-02-13T03:35:30;102424.38;;;-3.12;100.00
45050;BME280;61798;48.048;-1.928;2023-02-13T03:38:04;102434.25;;;-3.19;100.00
45050;BME280;61798;48.048;-1.928;2023-02-13T03:40:32;102420.00;;;-3.35;100.00
45050;BME280;61798;48.048;-1.928;2023-02-13T03:43:03;102435.56;;;-3.31;100.00
45050;BME280;61798;48.048;-1.928;2023-02-13T03:45:17;102446.72;;;-3.25;100.00
45050;BME280;61798;48.048;-1.928;2023-02-13T03:47:47;102433.84;;;-3.32;100.00
45050;BME280;61798;48.048;-1.928;2023-02-13T03:49:54;102432.88;;;-3.29;100.00
45050;BME280;61798;48.048;-1.928;2023-02-13T03:54:33;102443.88;;;-3.19;100.00
45050;BME280;61798;48.048;-1.928;2023-02-13T03:57:00;102425.13;;;-3.08;100.00
45050;BME280;61798;48.048;-1.928;2023-02-13T03:59:33;102432.34;;;-2.91;100.00
45050;BME280;61798;48.048;-1.928;2023-02-13T04:04:08;102442.56;;;-2.83;100.00
45050;BME280;61798;48.048;-1.928;2023-02-13T04:06:19;102404.13;;;-3.08;100.00
45050;BME280;61798;48.048;-1.928;2023-02-13T04:08:26;102433.56;;;-3.00;100.00
45050;BME280;61798;48.048;-1.928;2023-02-13T04:10:35;102450.03;;;-2.96;100.00
45050;BME280;61798;48.048;-1.928;2023-02-13T04:15:11;102398.00;;;-3.31;100.00
45050;BME280;61798;48.048;-1.928;2023-02-13T04:17:23;102447.81;;;-3.07;100.00
45050;BME280;61798;48.048;-1.928;2023-02-13T04:19:31;102456.72;;;-3.11;100.00
45050;BME280;61798;48.048;-1.928;2023-02-13T04:21:38;102436.22;;;-3.25;100.00
45050;BME280;61798;48.048;-1.928;2023-02-13T04:23:44;102409.91;;;-3.46;100.00
45050;BME280;61798;48.048;-1.928;2023-02-13T04:25:53;102380.03;;;-3.66;100.00
45050;BME280;61798;48.048;-1.928;2023-02-13T04:28:00;102416.91;;;-3.47;100.00
45050;BME280;61798;48.048;-1.928;2023-02-13T04:30:09;102447.56;;;-3.25;100.00
45050;BME280;61798;48.048;-1.928;2023-02-13T04:32:16;102452.97;;;-3.30;100.00
45050;BME280;61798;48.048;-1.928;2023-02-13T04:34:22;102419.72;;;-3.53;100.00
45050;BME280;61798;48.048;-1.928;2023-02-13T04:36:28;102419.72;;;-3.53;100.00
45050;BME280;61798;48.048;-1.928;2023-02-13T04:38:34;102443.16;;;-3.48;100.00
45050;BME280;61798;48.048;-1.928;2023-02-13T04:40:40;102456.75;;;-3.37;100.00
45050;BME280;61798;48.048;-1.928;2023-02-13T04:42:47;102443.47;;;-3.58;100.00
45050;BME280;61798;48.048;-1.928;2023-02-13T04:44:53;102453.53;;;-3.45;100.00
45050;BME280;61798;48.048;-1.928;2023-02-13T04:46:59;102429.34;;;-3.54;100.00
45050;BME280;61798;48.048;-1.928;2023-02-13T04:49:05;102427.00;;;-3.62;100.00
45050;BME280;61798;48.048;-1.928;2023-02-13T04:51:11;102418.28;;;-3.62;100.00
45050;BME280;61798;48.048;-1.928;2023-02-13T04:53:17;102423.59;;;-3.64;100.00
45050;BME280;61798;48.048;-1.928;2023-02-13T04:55:25;102421.72;;;-3.60;100.00
45050;BME280;61798;48.048;-1.928;2023-02-13T04:57:31;102397.59;;;-3.70;100.00
45050;BME280;61798;48.048;-1.928;2023-02-13T04:59:37;102402.84;;;-3.70;100.00
45050;BME280;61798;48.048;-1.928;2023-02-13T05:01:43;102461.88;;;-3.34;100.00
45050;BME280;61798;48.048;-1.928;2023-02-13T05:03:48;102408.94;;;-3.69;100.00
45050;BME280;61798;48.048;-1.928;2023-02-13T05:05:55;102413.31;;;-3.70;100.00
45050;BME280;61798;48.048;-1.928;2023-02-13T05:08:01;102435.72;;;-3.61;100.00
45050;BME280;61798;48.048;-1.928;2023-02-13T05:10:09;102404.69;;;-3.72;100.00
45050;BME280;61798;48.048;-1.928;2023-02-13T05:12:15;102442.19;;;-3.46;100.00
45050;BME280;61798;48.048;-1.928;2023-02-13T05:14:21;102451.06;;;-3.50;100.00
45050;BME280;61798;48.048;-1.928;2023-02-13T05:16:27;102442.69;;;-3.60;100.00
45050;BME280;61798;48.048;-1.928;2023-02-13T05:18:33;102448.56;;;-3.53;100.00
45050;BME280;61798;48.048;-1.928;2023-02-13T05:20:39;102442.41;;;-3.52;100.00
45050;BME280;61798;48.048;-1.928;2023-02-13T05:22:47;102456.28;;;-3.48;100.00
45050;BME280;61798;48.048;-1.928;2023-02-13T05:25:11;102400.41;;;-3.75;100.00
45050;BME280;61798;48.048;-1.928;2023-02-13T05:27:20;102422.00;;;-3.68;100.00
45050;BME280;61798;48.048;-1.928;2023-02-13T05:29:26;102453.53;;;-3.45;100.00
45050;BME280;61798;48.048;-1.928;2023-02-13T05:31:32;102386.72;;;-3.83;100.00
45050;BME280;61798;48.048;-1.928;2023-02-13T05:33:38;102411.28;;;-3.62;100.00
45050;BME280;61798;48.048;-1.928;2023-02-13T05:35:44;102397.78;;;-3.75;100.00
45050;BME280;61798;48.048;-1.928;2023-02-13T05:37:50;102441.28;;;-3.45;100.00
45050;BME280;61798;48.048;-1.928;2023-02-13T05:39:56;102425.41;;;-3.66;100.00
45050;BME280;61798;48.048;-1.928;2023-02-13T05:42:02;102414.28;;;-3.73;100.00
45050;BME280;61798;48.048;-1.928;2023-02-13T05:44:09;102424.03;;;-3.76;100.00
45050;BME280;61798;48.048;-1.928;2023-02-13T05:46:15;102402.56;;;-3.86;100.00
45050;BME280;61798;48.048;-1.928;2023-02-13T05:48:21;102424.88;;;-3.76;100.00
45050;BME280;61798;48.048;-1.928;2023-02-13T05:50:27;102428.38;;;-3.75;100.00
45050;BME280;61798;48.048;-1.928;2023-02-13T05:52:33;102412.16;;;-3.87;100.00
45050;BME280;61798;48.048;-1.928;2023-02-13T05:54:39;102439.59;;;-3.72;100.00
45050;BME280;61798;48.048;-1.928;2023-02-13T05:56:45;102432.47;;;-3.68;100.00
45050;BME280;61798;48.048;-1.928;2023-02-13T05:58:52;102393.28;;;-3.97;100.00
45050;BME280;61798;48.048;-1.928;2023-02-13T06:00:59;102424.75;;;-3.71;100.00
45050;BME280;61798;48.048;-1.928;2023-02-13T06:03:05;102416.88;;;-3.71;100.00
45050;BME280;61798;48.048;-1.928;2023-02-13T06:05:11;102430.72;;;-3.67;100.00
45050;BME280;61798;48.048;-1.928;2023-02-13T06:07:17;102433.47;;;-3.70;100.00
45050;BME280;61798;48.048;-1.928;2023-02-13T06:09:23;102414.84;;;-3.63;100.00
45050;BME280;61798;48.048;-1.928;2023-02-13T06:11:29;102394.16;;;-3.70;100.00
45050;BME280;61798;48.048;-1.928;2023-02-13T06:13:36;102407.44;;;-3.77;100.00
45050;BME280;61798;48.048;-1.928;2023-02-13T06:15:45;102418.53;;;-3.68;100.00
45050;BME280;61798;48.048;-1.928;2023-02-13T06:17:51;102426.63;;;-3.75;100.00
45050;BME280;61798;48.048;-1.928;2023-02-13T06:19:57;102443.13;;;-3.73;100.00
45050;BME280;61798;48.048;-1.928;2023-02-13T06:22:03;102470.19;;;-3.46;100.00
45050;BME280;61798;48.048;-1.928;2023-02-13T06:24:09;102423.41;;;-3.83;100.00
45050;BME280;61798;48.048;-1.928;2023-02-13T06:26:15;102430.25;;;-3.79;100.00
45050;BME280;61798;48.048;-1.928;2023-02-13T06:28:21;102432.47;;;-3.68;100.00
45050;BME280;61798;48.048;-1.928;2023-02-13T06:30:27;102454.91;;;-3.59;100.00
45050;BME280;61798;48.048;-1.928;2023-02-13T06:32:33;102469.53;;;-3.53;100.00
45050;BME280;61798;48.048;-1.928;2023-02-13T06:34:39;102442.22;;;-3.72;100.00
45050;BME280;61798;48.048;-1.928;2023-02-13T06:36:45;102437.41;;;-3.84;100.00
45050;BME280;61798;48.048;-1.928;2023-02-13T06:38:51;102442.75;;;-3.87;100.00
45050;BME280;61798;48.048;-1.928;2023-02-13T06:41:00;102419.56;;;-3.98;100.00
45050;BME280;61798;48.048;-1.928;2023-02-13T06:43:06;102427.97;;;-3.90;100.00
45050;BME280;61798;48.048;-1.928;2023-02-13T06:45:13;102412.53;;;-3.98;100.00
45050;BME280;61798;48.048;-1.928;2023-02-13T06:47:19;102478.38;;;-3.56;100.00
45050;BME280;61798;48.048;-1.928;2023-02-13T06:49:25;102438.16;;;-3.80;100.00
45050;BME280;61798;48.048;-1.928;2023-02-13T06:51:31;102473.31;;;-3.62;100.00
45050;BME280;61798;48.048;-1.928;2023-02-13T06:53:37;102438.78;;;-3.74;100.00
45050;BME280;61798;48.048;-1.928;2023-02-13T06:55:44;102451.84;;;-3.72;100.00
45050;BME280;61798;48.048;-1.928;2023-02-13T06:57:50;102448.94;;;-3.64;100.00
45050;BME280;61798;48.048;-1.928;2023-02-13T06:59:58;102481.09;;;-3.59;100.00
45050;BME280;61798;48.048;-1.928;2023-02-13T07:02:04;102456.34;;;-3.76;100.00
45050;BME280;61798;48.048;-1.928;2023-02-13T07:04:10;102459.06;;;-3.79;100.00
45050;BME280;61798;48.048;-1.928;2023-02-13T07:06:17;102478.56;;;-3.62;100.00
45050;BME280;61798;48.048;-1.928;2023-02-13T07:08:24;102504.22;;;-3.45;100.00
45050;BME280;61798;48.048;-1.928;2023-02-13T07:10:30;102458.94;;;-3.50;100.00
45050;BME280;61798;48.048;-1.928;2023-02-13T07:12:37;102502.56;;;-3.47;100.00
45050;BME280;61798;48.048;-1.928;2023-02-13T07:14:43;102485.63;;;-3.64;100.00
45050;BME280;61798;48.048;-1.928;2023-02-13T07:16:49;102466.41;;;-3.63;100.00
45050;BME280;61798;48.048;-1.928;2023-02-13T07:18:55;102454.97;;;-3.62;100.00
45050;BME280;61798;48.048;-1.928;2023-02-13T07:21:01;102495.31;;;-3.41;100.00
45050;BME280;61798;48.048;-1.928;2023-02-13T07:23:09;102511.00;;;-3.39;100.00
45050;BME280;61798;48.048;-1.928;2023-02-13T07:25:15;102460.69;;;-3.75;100.00
45050;BME280;61798;48.048;-1.928;2023-02-13T07:27:22;102510.94;;;-3.37;100.00
45050;BME280;61798;48.048;-1.928;2023-02-13T07:29:28;102511.59;;;-3.31;100.00
45050;BME280;61798;48.048;-1.928;2023-02-13T07:31:34;102506.66;;;-3.40;100.00
45050;BME280;61798;48.048;-1.928;2023-02-13T07:33:41;102520.09;;;-3.50;100.00
45050;BME280;61798;48.048;-1.928;2023-02-13T07:35:48;102521.03;;;-3.51;100.00
45050;BME280;61798;48.048;-1.928;2023-02-13T07:37:55;102523.94;;;-3.60;100.00
45050;BME280;61798;48.048;-1.928;2023-02-13T07:40:01;102515.44;;;-3.67;100.00
45050;BME280;61798;48.048;-1.928;2023-02-13T07:42:08;102476.28;;;-3.72;100.00
45050;BME280;61798;48.048;-1.928;2023-02-13T07:44:14;102466.31;;;-3.87;100.00
45050;BME280;61798;48.048;-1.928;2023-02-13T07:46:20;102505.28;;;-3.78;100.00
45050;BME280;61798;48.048;-1.928;2023-02-13T07:48:27;102525.56;;;-3.56;100.00
45050;BME280;61798;48.048;-1.928;2023-02-13T07:50:33;102496.09;;;-3.90;100.00
45050;BME280;61798;48.048;-1.928;2023-02-13T07:52:40;102522.34;;;-3.64;100.00
45050;BME280;61798;48.048;-1.928;2023-02-13T07:54:46;102499.00;;;-3.72;100.00
45050;BME280;61798;48.048;-1.928;2023-02-13T07:56:52;102481.06;;;-3.85;100.00
45050;BME280;61798;48.048;-1.928;2023-02-13T07:58:58;102519.22;;;-3.76;100.00
45050;BME280;61798;48.048;-1.928;2023-02-13T08:01:09;102558.88;;;-3.34;100.00
45050;BME280;61798;48.048;-1.928;2023-02-13T08:03:16;102535.44;;;-3.64;100.00
45050;BME280;61798;48.048;-1.928;2023-02-13T08:05:22;102522.22;;;-3.61;100.00
45050;BME280;61798;48.048;-1.928;2023-02-13T08:07:28;102498.91;;;-3.43;100.00
45050;BME280;61798;48.048;-1.928;2023-02-13T08:09:34;102501.25;;;-3.61;100.00
45050;BME280;61798;48.048;-1.928;2023-02-13T08:11:58;102538.22;;;-3.17;100.00
45050;BME280;61798;48.048;-1.928;2023-02-13T08:14:04;102538.66;;;-3.04;100.00
45050;BME280;61798;48.048;-1.928;2023-02-13T08:16:10;102550.13;;;-3.07;100.00
45050;BME280;61798;48.048;-1.928;2023-02-13T08:18:17;102518.25;;;-2.96;100.00
45050;BME280;61798;48.048;-1.928;2023-02-13T08:20:23;102523.03;;;-3.33;100.00
45050;BME280;61798;48.048;-1.928;2023-02-13T08:22:29;102501.81;;;-3.51;100.00
45050;BME280;61798;48.048;-1.928;2023-02-13T08:24:35;102543.53;;;-3.19;100.00
45050;BME280;61798;48.048;-1.928;2023-02-13T08:26:41;102527.75;;;-2.93;100.00
45050;BME280;61798;48.048;-1.928;2023-02-13T08:28:48;102473.66;;;-3.46;100.00
45050;BME280;61798;48.048;-1.928;2023-02-13T08:30:54;102549.56;;;-2.91;100.00
45050;BME280;61798;48.048;-1.928;2023-02-13T08:33:00;102504.53;;;-3.29;100.00
45050;BME280;61798;48.048;-1.928;2023-02-13T08:35:06;102496.00;;;-3.61;100.00
45050;BME280;61798;48.048;-1.928;2023-02-13T08:37:12;102510.41;;;-3.47;100.00
45050;BME280;61798;48.048;-1.928;2023-02-13T08:39:18;102507.75;;;-2.96;100.00
45050;BME280;61798;48.048;-1.928;2023-02-13T08:41:24;102525.94;;;-3.15;100.00
45050;BME280;61798;48.048;-1.928;2023-02-13T08:43:30;102528.31;;;-3.09;100.00
45050;BME280;61798;48.048;-1.928;2023-02-13T08:45:36;102542.44;;;-2.88;100.00
45050;BME280;61798;48.048;-1.928;2023-02-13T08:47:43;102523.19;;;-3.12;100.00
45050;BME280;61798;48.048;-1.928;2023-02-13T08:49:49;102499.00;;;-3.21;100.00
45050;BME280;61798;48.048;-1.928;2023-02-13T08:51:55;102510.06;;;-3.12;100.00
45050;BME280;61798;48.048;-1.928;2023-02-13T08:54:01;102510.66;;;-3.30;100.00
45050;BME280;61798;48.048;-1.928;2023-02-13T08:56:08;102553.78;;;-2.63;100.00
45050;BME280;61798;48.048;-1.928;2023-02-13T08:58:14;102498.50;;;-3.31;100.00
45050;BME280;61798;48.048;-1.928;2023-02-13T09:00:20;102498.56;;;-3.34;100.00
45050;BME280;61798;48.048;-1.928;2023-02-13T09:02:26;102556.44;;;-3.13;100.00
45050;BME280;61798;48.048;-1.928;2023-02-13T09:04:32;102531.09;;;-3.14;100.00
45050;BME280;61798;48.048;-1.928;2023-02-13T09:06:39;102537.94;;;-3.10;100.00
45050;BME280;61798;48.048;-1.928;2023-02-13T09:08:45;102530.44;;;-3.19;100.00
45050;BME280;61798;48.048;-1.928;2023-02-13T09:11:00;102532.25;;;-2.97;100.00
45050;BME280;61798;48.048;-1.928;2023-02-13T09:13:06;102532.41;;;-2.76;100.00
45050;BME280;61798;48.048;-1.928;2023-02-13T09:15:12;102495.03;;;-2.83;100.00
45050;BME280;61798;48.048;-1.928;2023-02-13T09:17:18;102522.69;;;-2.74;100.00
45050;BME280;61798;48.048;-1.928;2023-02-13T09:19:24;102546.16;;;-2.47;100.00
45050;BME280;61798;48.048;-1.928;2023-02-13T09:21:30;102510.25;;;-2.69;100.00
45050;BME280;61798;48.048;-1.928;2023-02-13T09:23:38;102548.53;;;-2.16;100.00
45050;BME280;61798;48.048;-1.928;2023-02-13T09:25:44;102570.50;;;-2.19;100.00
45050;BME280;61798;48.048;-1.928;2023-02-13T09:27:50;102557.94;;;-1.88;100.00
45050;BME280;61798;48.048;-1.928;2023-02-13T09:29:56;102542.25;;;-1.68;100.00
45050;BME280;61798;48.048;-1.928;2023-02-13T09:32:04;102577.91;;;-1.84;100.00
45050;BME280;61798;48.048;-1.928;2023-02-13T09:34:10;102562.50;;;-1.50;100.00
45050;BME280;61798;48.048;-1.928;2023-02-13T09:36:20;102573.41;;;-1.59;100.00
45050;BME280;61798;48.048;-1.928;2023-02-13T09:38:27;102548.41;;;-2.13;100.00
45050;BME280;61798;48.048;-1.928;2023-02-13T09:40:44;102574.44;;;-1.84;100.00
45050;BME280;61798;48.048;-1.928;2023-02-13T09:42:52;102551.88;;;-1.90;100.00
45050;BME280;61798;48.048;-1.928;2023-02-13T09:45:00;102534.78;;;-2.00;100.00
45050;BME280;61798;48.048;-1.928;2023-02-13T09:47:19;102517.72;;;-2.13;100.00
45050;BME280;61798;48.048;-1.928;2023-02-13T09:49:29;102567.69;;;-1.69;100.00
45050;BME280;61798;48.048;-1.928;2023-02-13T09:51:37;102540.81;;;-1.76;100.00
45050;BME280;61798;48.048;-1.928;2023-02-13T09:53:51;102529.28;;;-1.73;100.00
45050;BME280;61798;48.048;-1.928;2023-02-13T09:56:16;102532.69;;;-1.71;100.00
45050;BME280;61798;48.048;-1.928;2023-02-13T10:00:47;102546.91;;;-1.12;100.00
45050;BME280;61798;48.048;-1.928;2023-02-13T10:12:34;102576.16;;;-0.59;100.00
45050;BME280;61798;48.048;-1.928;2023-02-13T10:15:41;102566.56;;;-0.60;100.00
45050;BME280;61798;48.048;-1.928;2023-02-13T10:17:40;102546.25;;;-0.77;100.00
45050;BME280;61798;48.048;-1.928;2023-02-13T10:20:00;102544.47;;;-0.77;100.00
45050;BME280;61798;48.048;-1.928;2023-02-13T10:22:18;102549.47;;;-0.51;100.00
45050;BME280;61798;48.048;-1.928;2023-02-13T10:24:47;102572.56;;;-0.19;100.00
45050;BME280;61798;48.048;-1.928;2023-02-13T10:26:56;102546.22;;;-0.19;100.00
45050;BME280;61798;48.048;-1.928;2023-02-13T10:29:06;102548.13;;;-0.03;100.00
45050;BME280;61798;48.048;-1.928;2023-02-13T10:31:33;102560.47;;;-0.23;100.00
45050;BME280;61798;48.048;-1.928;2023-02-13T10:33:57;102561.28;;;-0.03;100.00
45050;BME280;61798;48.048;-1.928;2023-02-13T10:38:19;102550.88;;;0.31;100.00
45050;BME280;61798;48.048;-1.928;2023-02-13T10:40:37;102565.72;;;0.51;100.00
45050;BME280;61798;48.048;-1.928;2023-02-13T10:45:23;102525.28;;;0.51;100.00
45050;BME280;61798;48.048;-1.928;2023-02-13T10:55:18;102534.97;;;0.50;100.00
45050;BME280;61798;48.048;-1.928;2023-02-13T10:57:57;102536.19;;;0.79;100.00
45050;BME280;61798;48.048;-1.928;2023-02-13T11:00:17;102548.94;;;0.70;100.00
45050;BME280;61798;48.048;-1.928;2023-02-13T11:02:28;102547.66;;;0.78;100.00
45050;BME280;61798;48.048;-1.928;2023-02-13T11:04:36;102517.53;;;0.82;100.00
45050;BME280;61798;48.048;-1.928;2023-02-13T11:08:56;102499.69;;;0.87;100.00
45050;BME280;61798;48.048;-1.928;2023-02-13T11:11:02;102543.38;;;1.27;100.00
45050;BME280;61798;48.048;-1.928;2023-02-13T11:13:19;102520.84;;;1.03;100.00
45050;BME280;61798;48.048;-1.928;2023-02-13T11:15:28;102552.38;;;1.23;100.00
45050;BME280;61798;48.048;-1.928;2023-02-13T11:17:39;102548.78;;;1.24;100.00
45050;BME280;61798;48.048;-1.928;2023-02-13T11:19:49;102536.97;;;1.31;100.00
45050;BME280;61798;48.048;-1.928;2023-02-13T11:24:21;102545.41;;;1.54;100.00
45050;BME280;61798;48.048;-1.928;2023-02-13T11:26:32;102532.34;;;1.84;100.00
45050;BME280;61798;48.048;-1.928;2023-02-13T11:28:47;102513.81;;;1.84;100.00
45050;BME280;61798;48.048;-1.928;2023-02-13T11:31:12;102509.38;;;2.00;100.00
45050;BME280;61798;48.048;-1.928;2023-02-13T11:33:26;102540.06;;;2.03;100.00
45050;BME280;61798;48.048;-1.928;2023-02-13T11:35:34;102486.13;;;1.91;100.00
45050;BME280;61798;48.048;-1.928;2023-02-13T11:37:41;102518.66;;;2.08;100.00
45050;BME280;61798;48.048;-1.928;2023-02-13T11:39:48;102528.53;;;2.35;100.00
45050;BME280;61798;48.048;-1.928;2023-02-13T11:41:55;102492.88;;;2.11;100.00
45050;BME280;61798;48.048;-1.928;2023-02-13T11:44:02;102508.00;;;2.24;100.00
45050;BME280;61798;48.048;-1.928;2023-02-13T11:46:19;102522.53;;;2.48;100.00
45050;BME280;61798;48.048;-1.928;2023-02-13T11:48:25;102507.22;;;2.38;100.00
45050;BME280;61798;48.048;-1.928;2023-02-13T11:50:33;102524.97;;;2.51;100.00
45050;BME280;61798;48.048;-1.928;2023-02-13T11:52:55;102491.72;;;2.61;100.00
45050;BME280;61798;48.048;-1.928;2023-02-13T11:55:04;102511.97;;;2.77;100.00
45050;BME280;61798;48.048;-1.928;2023-02-13T11:57:30;102499.84;;;3.17;100.00
45050;BME280;61798;48.048;-1.928;2023-02-13T11:59:41;102492.94;;;3.14;100.00
45050;BME280;61798;48.048;-1.928;2023-02-13T12:02:13;102497.00;;;3.20;100.00
45050;BME280;61798;48.048;-1.928;2023-02-13T12:04:20;102501.97;;;3.40;100.00
45050;BME280;61798;48.048;-1.928;2023-02-13T12:06:26;102498.72;;;3.49;100.00
45050;BME280;61798;48.048;-1.928;2023-02-13T12:08:37;102486.69;;;3.58;100.00
45050;BME280;61798;48.048;-1.928;2023-02-13T12:10:43;102464.34;;;3.47;100.00
45050;BME280;61798;48.048;-1.928;2023-02-13T12:15:52;102478.72;;;3.99;100.00